Terminal Aerodrome Forecast
Issued by NWS

Current Version | Previous Version | Text Only | Print | Product List | Glossary On
Versions: 1 2 3 4 5 6 7 8 9 10 11 12
000
FTUS42 KGSP 170540
TAFAND
TAF
KAND 170540Z 1706/1806 25008KT P6SM OVC040
     FM170800 34006KT P6SM -SN OVC023
     FM171000 35006KT 4SM -SN OVC012
      TEMPO 1710/1714 1SM -SN OVC007
     FM171400 35006KT 6SM -SN OVC011 PROB30 1715/1717 2SM -SN OVC004
     FM171700 35010KT P6SM BKN035
     FM180100 34009KT P6SM SKC=

USA.gov is the U.S. government's official web portal to all federal, state and local government web resources and services.